sensor_id;sensor_type;location;lat;lon;timestamp;pressure;altitude;pressure_sealevel;temperature;humidity
10606;BME280;5350;42.698;23.148;2023-02-11T00:00:31;95254.09;;;-3.91;79.79
10606;BME280;5350;42.698;23.148;2023-02-11T00:02:58;95241.06;;;-3.90;78.77
10606;BME280;5350;42.698;23.148;2023-02-11T00:05:25;95249.28;;;-3.86;78.34
10606;BME280;5350;42.698;23.148;2023-02-11T00:07:51;95252.00;;;-3.88;79.09
10606;BME280;5350;42.698;23.148;2023-02-11T00:10:18;95246.22;;;-3.90;79.87
10606;BME280;5350;42.698;23.148;2023-02-11T00:12:45;95248.94;;;-3.83;79.65
10606;BME280;5350;42.698;23.148;2023-02-11T00:15:11;95248.63;;;-3.80;79.11
10606;BME280;5350;42.698;23.148;2023-02-11T00:17:39;95259.88;;;-3.73;78.48
10606;BME280;5350;42.698;23.148;2023-02-11T00:20:07;95253.94;;;-3.74;77.41
10606;BME280;5350;42.698;23.148;2023-02-11T00:22:34;95255.06;;;-3.92;79.19
10606;BME280;5350;42.698;23.148;2023-02-11T00:25:02;95248.63;;;-4.05;80.07
10606;BME280;5350;42.698;23.148;2023-02-11T00:27:28;95253.47;;;-3.93;79.53
10606;BME280;5350;42.698;23.148;2023-02-11T00:29:55;95243.50;;;-3.96;79.20
10606;BME280;5350;42.698;23.148;2023-02-11T00:32:22;95249.59;;;-4.06;80.24
10606;BME280;5350;42.698;23.148;2023-02-11T00:34:52;95247.22;;;-4.07;80.57
10606;BME280;5350;42.698;23.148;2023-02-11T00:37:19;95235.47;;;-4.01;79.39
10606;BME280;5350;42.698;23.148;2023-02-11T00:39:46;95240.28;;;-4.07;79.07
10606;BME280;5350;42.698;23.148;2023-02-11T00:42:14;95243.00;;;-4.08;78.78
10606;BME280;5350;42.698;23.148;2023-02-11T00:44:41;95234.31;;;-4.15;79.30
10606;BME280;5350;42.698;23.148;2023-02-11T00:47:08;95238.19;;;-4.19;79.86
10606;BME280;5350;42.698;23.148;2023-02-11T00:49:35;95239.34;;;-4.22;80.20
10606;BME280;5350;42.698;23.148;2023-02-11T00:52:05;95229.34;;;-4.33;79.49
10606;BME280;5350;42.698;23.148;2023-02-11T00:54:31;95233.84;;;-4.35;80.13
10606;BME280;5350;42.698;23.148;2023-02-11T00:56:58;95237.06;;;-4.41;78.86
10606;BME280;5350;42.698;23.148;2023-02-11T00:59:27;95237.63;;;-4.71;81.64
10606;BME280;5350;42.698;23.148;2023-02-11T01:01:54;95236.22;;;-4.65;81.76
10606;BME280;5350;42.698;23.148;2023-02-11T01:04:20;95237.63;;;-4.71;81.86
10606;BME280;5350;42.698;23.148;2023-02-11T01:06:47;95231.38;;;-4.68;82.75
10606;BME280;5350;42.698;23.148;2023-02-11T01:09:15;95239.44;;;-4.63;82.99
10606;BME280;5350;42.698;23.148;2023-02-11T01:11:42;95238.28;;;-4.61;82.31
10606;BME280;5350;42.698;23.148;2023-02-11T01:14:09;95230.28;;;-4.58;83.01
10606;BME280;5350;42.698;23.148;2023-02-11T01:16:36;95232.84;;;-4.58;82.96
10606;BME280;5350;42.698;23.148;2023-02-11T01:19:02;95238.47;;;-4.62;82.36
10606;BME280;5350;42.698;23.148;2023-02-11T01:21:29;95239.56;;;-4.73;83.36
10606;BME280;5350;42.698;23.148;2023-02-11T01:23:56;95242.47;;;-4.60;83.92
10606;BME280;5350;42.698;23.148;2023-02-11T01:26:24;95231.41;;;-4.52;83.02
10606;BME280;5350;42.698;23.148;2023-02-11T01:28:50;95228.53;;;-4.65;82.38
10606;BME280;5350;42.698;23.148;2023-02-11T01:31:17;95227.03;;;-4.76;83.79
10606;BME280;5350;42.698;23.148;2023-02-11T01:33:44;95232.75;;;-4.90;83.06
10606;BME280;5350;42.698;23.148;2023-02-11T01:36:11;95222.44;;;-5.06;83.81
10606;BME280;5350;42.698;23.148;2023-02-11T01:38:38;95218.97;;;-4.89;83.21
10606;BME280;5350;42.698;23.148;2023-02-11T01:41:07;95219.78;;;-4.89;82.21
10606;BME280;5350;42.698;23.148;2023-02-11T01:43:37;95209.19;;;-4.86;81.35
10606;BME280;5350;42.698;23.148;2023-02-11T01:46:20;95216.91;;;-4.77;80.67
10606;BME280;5350;42.698;23.148;2023-02-11T01:48:52;95214.50;;;-4.79;81.34
10606;BME280;5350;42.698;23.148;2023-02-11T01:51:23;95212.41;;;-4.92;82.09
10606;BME280;5350;42.698;23.148;2023-02-11T01:53:52;95217.03;;;-4.95;82.84
10606;BME280;5350;42.698;23.148;2023-02-11T01:56:41;95211.94;;;-4.79;82.69
10606;BME280;5350;42.698;23.148;2023-02-11T01:59:46;95202.31;;;-4.85;82.44
10606;BME280;5350;42.698;23.148;2023-02-11T02:02:17;95207.75;;;-4.88;82.67
10606;BME280;5350;42.698;23.148;2023-02-11T02:04:49;95205.34;;;-4.90;83.13
10606;BME280;5350;42.698;23.148;2023-02-11T02:07:25;95213.50;;;-4.94;83.12
10606;BME280;5350;42.698;23.148;2023-02-11T02:09:58;95209.31;;;-5.03;82.82
10606;BME280;5350;42.698;23.148;2023-02-11T02:12:26;95213.19;;;-4.99;82.89
10606;BME280;5350;42.698;23.148;2023-02-11T02:18:11;95207.16;;;-4.74;81.40
10606;BME280;5350;42.698;23.148;2023-02-11T02:23:51;95215.34;;;-4.70;80.01
10606;BME280;5350;42.698;23.148;2023-02-11T02:29:59;95210.00;;;-4.85;80.07
10606;BME280;5350;42.698;23.148;2023-02-11T02:32:40;95211.47;;;-4.74;78.78
10606;BME280;5350;42.698;23.148;2023-02-11T02:35:18;95214.50;;;-4.79;78.84
10606;BME280;5350;42.698;23.148;2023-02-11T02:37:52;95208.25;;;-4.93;79.99
10606;BME280;5350;42.698;23.148;2023-02-11T02:40:24;95214.00;;;-4.99;80.50
10606;BME280;5350;42.698;23.148;2023-02-11T02:42:53;95210.78;;;-5.01;81.26
10606;BME280;5350;42.698;23.148;2023-02-11T02:45:20;95211.38;;;-5.07;80.68
10606;BME280;5350;42.698;23.148;2023-02-11T02:47:48;95211.72;;;-5.10;81.96
10606;BME280;5350;42.698;23.148;2023-02-11T02:50:18;95217.81;;;-5.03;82.11
10606;BME280;5350;42.698;23.148;2023-02-11T02:52:56;95215.41;;;-5.04;81.29
10606;BME280;5350;42.698;23.148;2023-02-11T02:55:47;95207.69;;;-5.04;82.36
10606;BME280;5350;42.698;23.148;2023-02-11T02:58:40;95206.13;;;-4.97;82.23
10606;BME280;5350;42.698;23.148;2023-02-11T03:01:21;95199.88;;;-4.95;81.26
10606;BME280;5350;42.698;23.148;2023-02-11T03:03:58;95203.22;;;-5.02;81.36
10606;BME280;5350;42.698;23.148;2023-02-11T03:06:32;95204.22;;;-4.95;81.74
10606;BME280;5350;42.698;23.148;2023-02-11T03:09:04;95207.25;;;-5.00;81.64
10606;BME280;5350;42.698;23.148;2023-02-11T03:11:33;95215.28;;;-4.95;80.21
10606;BME280;5350;42.698;23.148;2023-02-11T03:14:04;95210.25;;;-5.12;79.51
10606;BME280;5350;42.698;23.148;2023-02-11T03:16:32;95215.31;;;-5.28;79.43
10606;BME280;5350;42.698;23.148;2023-02-11T03:19:09;95212.38;;;-5.41;80.83
10606;BME280;5350;42.698;23.148;2023-02-11T03:21:39;95212.19;;;-5.48;82.10
10606;BME280;5350;42.698;23.148;2023-02-11T03:24:11;95213.41;;;-5.60;80.87
10606;BME280;5350;42.698;23.148;2023-02-11T03:26:42;95199.78;;;-5.60;81.30
10606;BME280;5350;42.698;23.148;2023-02-11T03:29:16;95207.38;;;-5.51;81.67
10606;BME280;5350;42.698;23.148;2023-02-11T03:31:51;95198.41;;;-5.47;80.96
10606;BME280;5350;42.698;23.148;2023-02-11T03:34:28;95203.09;;;-5.42;79.94
10606;BME280;5350;42.698;23.148;2023-02-11T03:37:00;95203.41;;;-5.37;80.32
10606;BME280;5350;42.698;23.148;2023-02-11T03:39:32;95203.13;;;-5.34;79.95
10606;BME280;5350;42.698;23.148;2023-02-11T03:42:03;95187.72;;;-5.34;78.95
10606;BME280;5350;42.698;23.148;2023-02-11T03:44:35;95195.44;;;-5.26;78.21
10606;BME280;5350;42.698;23.148;2023-02-11T03:47:04;95197.03;;;-5.25;78.55
10606;BME280;5350;42.698;23.148;2023-02-11T03:49:37;95198.34;;;-5.21;78.55
10606;BME280;5350;42.698;23.148;2023-02-11T03:52:06;95193.09;;;-5.12;78.04
10606;BME280;5350;42.698;23.148;2023-02-11T03:54:37;95192.09;;;-5.19;77.08
10606;BME280;5350;42.698;23.148;2023-02-11T03:57:06;95181.69;;;-5.17;76.19
10606;BME280;5350;42.698;23.148;2023-02-11T03:59:49;95194.63;;;-5.27;77.39
10606;BME280;5350;42.698;23.148;2023-02-11T04:02:15;95196.41;;;-5.27;76.06
10606;BME280;5350;42.698;23.148;2023-02-11T04:04:44;95198.66;;;-5.24;76.19
10606;BME280;5350;42.698;23.148;2023-02-11T04:07:11;95198.31;;;-5.29;75.61
10606;BME280;5350;42.698;23.148;2023-02-11T04:09:38;95201.56;;;-5.19;75.09
10606;BME280;5350;42.698;23.148;2023-02-11T04:12:06;95199.41;;;-5.32;75.11
10606;BME280;5350;42.698;23.148;2023-02-11T04:14:33;95197.03;;;-5.25;75.00
10606;BME280;5350;42.698;23.148;2023-02-11T04:17:00;95195.13;;;-5.23;74.57
10606;BME280;5350;42.698;23.148;2023-02-11T04:19:26;95187.88;;;-5.36;75.23
10606;BME280;5350;42.698;23.148;2023-02-11T04:21:54;95193.19;;;-5.29;75.92
10606;BME280;5350;42.698;23.148;2023-02-11T04:24:21;95195.78;;;-5.21;74.06
10606;BME280;5350;42.698;23.148;2023-02-11T04:26:48;95195.94;;;-5.23;74.42
10606;BME280;5350;42.698;23.148;2023-02-11T04:29:15;95192.06;;;-5.35;74.89
10606;BME280;5350;42.698;23.148;2023-02-11T04:31:42;95191.25;;;-5.27;74.97
10606;BME280;5350;42.698;23.148;2023-02-11T04:34:08;95196.06;;;-5.32;75.07
10606;BME280;5350;42.698;23.148;2023-02-11T04:36:35;95193.53;;;-5.24;76.03
10606;BME280;5350;42.698;23.148;2023-02-11T04:39:03;95185.66;;;-5.31;76.34
10606;BME280;5350;42.698;23.148;2023-02-11T04:41:30;95193.38;;;-5.23;77.16
10606;BME280;5350;42.698;23.148;2023-02-11T04:43:57;95187.41;;;-5.31;75.71
10606;BME280;5350;42.698;23.148;2023-02-11T04:46:24;95187.28;;;-5.22;74.41
10606;BME280;5350;42.698;23.148;2023-02-11T04:48:50;95192.25;;;-5.28;74.92
10606;BME280;5350;42.698;23.148;2023-02-11T04:51:17;95206.72;;;-5.53;76.26
10606;BME280;5350;42.698;23.148;2023-02-11T04:53:44;95193.28;;;-5.47;74.91
10606;BME280;5350;42.698;23.148;2023-02-11T04:56:12;95214.28;;;-5.43;75.35
10606;BME280;5350;42.698;23.148;2023-02-11T04:58:39;95191.50;;;-5.46;74.66
10606;BME280;5350;42.698;23.148;2023-02-11T05:01:06;95198.25;;;-5.45;74.79
10606;BME280;5350;42.698;23.148;2023-02-11T05:03:33;95183.50;;;-5.43;74.82
10606;BME280;5350;42.698;23.148;2023-02-11T05:06:00;95177.91;;;-5.47;74.99
10606;BME280;5350;42.698;23.148;2023-02-11T05:08:27;95174.94;;;-5.60;77.18
10606;BME280;5350;42.698;23.148;2023-02-11T05:10:53;95178.41;;;-5.69;77.95
10606;BME280;5350;42.698;23.148;2023-02-11T05:13:22;95180.84;;;-5.68;78.68
10606;BME280;5350;42.698;23.148;2023-02-11T05:15:49;95172.50;;;-5.70;79.37
10606;BME280;5350;42.698;23.148;2023-02-11T05:18:16;95179.44;;;-5.62;78.20
10606;BME280;5350;42.698;23.148;2023-02-11T05:20:43;95176.66;;;-5.69;77.75
10606;BME280;5350;42.698;23.148;2023-02-11T05:23:10;95176.91;;;-5.80;78.77
10606;BME280;5350;42.698;23.148;2023-02-11T05:25:37;95178.81;;;-5.82;78.99
10606;BME280;5350;42.698;23.148;2023-02-11T05:28:04;95173.91;;;-5.75;78.53
10606;BME280;5350;42.698;23.148;2023-02-11T05:30:33;95167.03;;;-5.75;78.47
10606;BME280;5350;42.698;23.148;2023-02-11T05:32:59;95163.16;;;-5.79;79.65
10606;BME280;5350;42.698;23.148;2023-02-11T05:35:26;95172.75;;;-5.89;81.35
10606;BME280;5350;42.698;23.148;2023-02-11T05:37:53;95168.72;;;-5.91;82.08
10606;BME280;5350;42.698;23.148;2023-02-11T05:40:20;95177.22;;;-5.91;82.66
10606;BME280;5350;42.698;23.148;2023-02-11T05:42:46;95168.28;;;-5.87;82.65
10606;BME280;5350;42.698;23.148;2023-02-11T05:45:13;95167.66;;;-6.06;83.36
10606;BME280;5350;42.698;23.148;2023-02-11T05:47:41;95167.47;;;-6.13;83.96
10606;BME280;5350;42.698;23.148;2023-02-11T05:50:08;95194.09;;;-6.06;84.70
10606;BME280;5350;42.698;23.148;2023-02-11T05:52:35;95171.03;;;-6.06;84.48
10606;BME280;5350;42.698;23.148;2023-02-11T05:55:01;95173.00;;;-6.00;83.30
10606;BME280;5350;42.698;23.148;2023-02-11T05:57:28;95178.50;;;-5.95;82.97
10606;BME280;5350;42.698;23.148;2023-02-11T05:59:55;95182.00;;;-5.96;83.45
10606;BME280;5350;42.698;23.148;2023-02-11T06:02:22;95187.81;;;-5.86;82.90
10606;BME280;5350;42.698;23.148;2023-02-11T06:04:50;95192.16;;;-5.86;82.59
10606;BME280;5350;42.698;23.148;2023-02-11T06:07:16;95186.88;;;-5.85;84.13
10606;BME280;5350;42.698;23.148;2023-02-11T06:09:44;95189.81;;;-5.72;83.73
10606;BME280;5350;42.698;23.148;2023-02-11T06:12:11;95180.94;;;-5.77;83.02
10606;BME280;5350;42.698;23.148;2023-02-11T06:14:37;95185.31;;;-5.70;83.10
10606;BME280;5350;42.698;23.148;2023-02-11T06:17:04;95177.50;;;-5.60;83.79
10606;BME280;5350;42.698;23.148;2023-02-11T06:19:31;95172.25;;;-5.50;84.27
10606;BME280;5350;42.698;23.148;2023-02-11T06:21:59;95178.09;;;-5.40;85.37
10606;BME280;5350;42.698;23.148;2023-02-11T06:24:26;95175.69;;;-5.34;84.15
10606;BME280;5350;42.698;23.148;2023-02-11T06:26:53;95175.25;;;-5.21;82.19
10606;BME280;5350;42.698;23.148;2023-02-11T06:29:19;95178.81;;;-5.14;82.93
10606;BME280;5350;42.698;23.148;2023-02-11T06:31:46;95185.59;;;-5.05;82.44
10606;BME280;5350;42.698;23.148;2023-02-11T06:34:13;95183.03;;;-4.97;80.42
10606;BME280;5350;42.698;23.148;2023-02-11T06:36:40;95188.19;;;-4.89;80.65
10606;BME280;5350;42.698;23.148;2023-02-11T06:39:11;95185.63;;;-4.81;81.29
10606;BME280;5350;42.698;23.148;2023-02-11T06:41:38;95189.31;;;-4.75;81.27
10606;BME280;5350;42.698;23.148;2023-02-11T06:44:05;95193.69;;;-4.68;80.95
10606;BME280;5350;42.698;23.148;2023-02-11T06:46:32;95198.19;;;-4.62;80.42
10606;BME280;5350;42.698;23.148;2023-02-11T06:48:59;95196.25;;;-4.52;80.17
10606;BME280;5350;42.698;23.148;2023-02-11T06:51:26;95197.88;;;-4.51;80.00
10606;BME280;5350;42.698;23.148;2023-02-11T06:53:52;95190.19;;;-4.51;78.90
10606;BME280;5350;42.698;23.148;2023-02-11T06:56:22;95184.41;;;-4.53;78.51
10606;BME280;5350;42.698;23.148;2023-02-11T06:58:52;95193.56;;;-4.34;77.82
10606;BME280;5350;42.698;23.148;2023-02-11T07:01:20;95195.31;;;-4.27;77.41
10606;BME280;5350;42.698;23.148;2023-02-11T07:03:47;95197.88;;;-4.11;77.39
10606;BME280;5350;42.698;23.148;2023-02-11T07:06:16;95194.97;;;-3.99;77.62
10606;BME280;5350;42.698;23.148;2023-02-11T07:08:43;95196.75;;;-3.84;75.86
10606;BME280;5350;42.698;23.148;2023-02-11T07:11:12;95196.72;;;-3.76;75.75
10606;BME280;5350;42.698;23.148;2023-02-11T07:13:40;95191.75;;;-3.69;75.31
10606;BME280;5350;42.698;23.148;2023-02-11T07:16:10;95185.59;;;-3.68;74.95
10606;BME280;5350;42.698;23.148;2023-02-11T07:18:37;95193.31;;;-3.68;75.11
10606;BME280;5350;42.698;23.148;2023-02-11T07:21:05;95183.22;;;-3.70;75.96
10606;BME280;5350;42.698;23.148;2023-02-11T07:23:32;95185.44;;;-3.67;73.88
10606;BME280;5350;42.698;23.148;2023-02-11T07:26:01;95168.72;;;-3.63;73.45
10606;BME280;5350;42.698;23.148;2023-02-11T07:28:28;95186.72;;;-3.55;74.09
10606;BME280;5350;42.698;23.148;2023-02-11T07:30:56;95183.63;;;-3.50;72.01
10606;BME280;5350;42.698;23.148;2023-02-11T07:33:23;95182.13;;;-3.29;72.51
10606;BME280;5350;42.698;23.148;2023-02-11T07:35:50;95177.56;;;-3.18;72.56
10606;BME280;5350;42.698;23.148;2023-02-11T07:38:16;95173.53;;;-3.13;70.94
10606;BME280;5350;42.698;23.148;2023-02-11T07:40:43;95169.63;;;-3.01;69.74
10606;BME280;5350;42.698;23.148;2023-02-11T07:43:10;95164.06;;;-2.90;72.23
10606;BME280;5350;42.698;23.148;2023-02-11T07:45:37;95162.56;;;-2.76;72.44
10606;BME280;5350;42.698;23.148;2023-02-11T07:48:05;95159.06;;;-2.61;69.84
10606;BME280;5350;42.698;23.148;2023-02-11T07:50:32;95158.34;;;-2.47;67.79
10606;BME280;5350;42.698;23.148;2023-02-11T07:52:59;95165.38;;;-2.40;66.85
10606;BME280;5350;42.698;23.148;2023-02-11T07:55:25;95157.06;;;-2.28;67.22
10606;BME280;5350;42.698;23.148;2023-02-11T07:57:52;95163.22;;;-2.14;65.58
10606;BME280;5350;42.698;23.148;2023-02-11T08:00:19;95158.28;;;-2.01;63.56
10606;BME280;5350;42.698;23.148;2023-02-11T08:02:45;95166.31;;;-1.96;62.67
10606;BME280;5350;42.698;23.148;2023-02-11T08:05:14;95158.81;;;-1.91;64.84
10606;BME280;5350;42.698;23.148;2023-02-11T08:07:40;95155.63;;;-1.79;66.33
10606;BME280;5350;42.698;23.148;2023-02-11T08:10:07;95159.56;;;-1.68;66.00
10606;BME280;5350;42.698;23.148;2023-02-11T08:12:34;95155.94;;;-1.59;65.43
10606;BME280;5350;42.698;23.148;2023-02-11T08:15:01;95158.22;;;-1.49;65.80
10606;BME280;5350;42.698;23.148;2023-02-11T08:17:27;95152.09;;;-1.34;65.60
10606;BME280;5350;42.698;23.148;2023-02-11T08:19:54;95159.94;;;-1.13;63.86
10606;BME280;5350;42.698;23.148;2023-02-11T08:22:22;95159.09;;;-0.99;64.07
10606;BME280;5350;42.698;23.148;2023-02-11T08:24:49;95165.22;;;-1.00;58.95
10606;BME280;5350;42.698;23.148;2023-02-11T08:27:16;95167.78;;;-0.85;59.82
10606;BME280;5350;42.698;23.148;2023-02-11T08:29:43;95160.81;;;-0.70;61.01
10606;BME280;5350;42.698;23.148;2023-02-11T08:32:09;95162.78;;;-0.51;59.28
10606;BME280;5350;42.698;23.148;2023-02-11T08:34:36;95157.06;;;-0.46;57.16
10606;BME280;5350;42.698;23.148;2023-02-11T08:37:03;95158.25;;;-0.28;57.87
10606;BME280;5350;42.698;23.148;2023-02-11T08:39:31;95155.81;;;-0.08;57.72
10606;BME280;5350;42.698;23.148;2023-02-11T08:41:57;95166.69;;;-0.19;53.80
10606;BME280;5350;42.698;23.148;2023-02-11T08:44:24;95159.66;;;-0.25;54.21
10606;BME280;5350;42.698;23.148;2023-02-11T08:46:52;95168.66;;;0.00;55.90
10606;BME280;5350;42.698;23.148;2023-02-11T08:49:19;95159.59;;;0.17;54.46
10606;BME280;5350;42.698;23.148;2023-02-11T08:51:46;95160.50;;;0.31;54.26
10606;BME280;5350;42.698;23.148;2023-02-11T08:54:14;95160.00;;;0.48;53.64
10606;BME280;5350;42.698;23.148;2023-02-11T08:56:42;95175.03;;;0.59;53.00
10606;BME280;5350;42.698;23.148;2023-02-11T08:59:12;95165.06;;;0.63;50.24
10606;BME280;5350;42.698;23.148;2023-02-11T09:01:39;95178.06;;;0.35;49.18
10606;BME280;5350;42.698;23.148;2023-02-11T09:04:05;95168.50;;;0.36;50.10
10606;BME280;5350;42.698;23.148;2023-02-11T09:06:32;95171.22;;;0.55;51.50
10606;BME280;5350;42.698;23.148;2023-02-11T09:08:59;95169.59;;;0.48;51.60
10606;BME280;5350;42.698;23.148;2023-02-11T09:11:28;95163.31;;;0.36;51.33
10606;BME280;5350;42.698;23.148;2023-02-11T09:13:56;95155.78;;;0.41;53.58
10606;BME280;5350;42.698;23.148;2023-02-11T09:16:25;95156.81;;;0.46;49.99
10606;BME280;5350;42.698;23.148;2023-02-11T09:18:54;95155.84;;;0.47;48.86
10606;BME280;5350;42.698;23.148;2023-02-11T09:21:21;95162.91;;;0.32;47.15
10606;BME280;5350;42.698;23.148;2023-02-11T09:23:48;95155.78;;;0.41;48.80
10606;BME280;5350;42.698;23.148;2023-02-11T09:26:17;95154.22;;;0.46;49.28
10606;BME280;5350;42.698;23.148;2023-02-11T09:28:44;95144.00;;;0.66;49.20
10606;BME280;5350;42.698;23.148;2023-02-11T09:31:14;95160.19;;;0.74;48.44
10606;BME280;5350;42.698;23.148;2023-02-11T09:33:43;95144.91;;;0.93;48.99
10606;BME280;5350;42.698;23.148;2023-02-11T09:36:14;95145.91;;;0.98;48.96
10606;BME280;5350;42.698;23.148;2023-02-11T09:38:41;95146.56;;;1.07;48.67
10606;BME280;5350;42.698;23.148;2023-02-11T09:41:34;95136.66;;;1.17;48.80
10606;BME280;5350;42.698;23.148;2023-02-11T09:44:06;95130.75;;;1.49;49.62
10606;BME280;5350;42.698;23.148;2023-02-11T09:46:36;95120.00;;;1.52;49.26
10606;BME280;5350;42.698;23.148;2023-02-11T09:49:06;95121.38;;;1.61;48.30
10606;BME280;5350;42.698;23.148;2023-02-11T09:51:43;95125.59;;;1.75;46.47
10606;BME280;5350;42.698;23.148;2023-02-11T09:54:17;95109.63;;;1.78;48.95
10606;BME280;5350;42.698;23.148;2023-02-11T09:56:44;95100.06;;;1.92;49.69
10606;BME280;5350;42.698;23.148;2023-02-11T09:59:13;95100.66;;;1.87;47.84
10606;BME280;5350;42.698;23.148;2023-02-11T10:01:46;95100.66;;;1.94;47.51
10606;BME280;5350;42.698;23.148;2023-02-11T10:04:22;95092.84;;;2.00;48.45
10606;BME280;5350;42.698;23.148;2023-02-11T10:06:53;95096.84;;;2.09;45.96
10606;BME280;5350;42.698;23.148;2023-02-11T10:09:46;95086.44;;;2.29;45.63
10606;BME280;5350;42.698;23.148;2023-02-11T10:12:34;95073.63;;;2.47;45.60
10606;BME280;5350;42.698;23.148;2023-02-11T10:15:16;95068.78;;;2.64;46.33
10606;BME280;5350;42.698;23.148;2023-02-11T10:17:58;95067.97;;;2.63;44.32
10606;BME280;5350;42.698;23.148;2023-02-11T10:20:31;95068.75;;;2.70;43.60
10606;BME280;5350;42.698;23.148;2023-02-11T10:23:04;95045.59;;;2.69;44.32
10606;BME280;5350;42.698;23.148;2023-02-11T10:25:36;95047.94;;;2.77;44.14
10606;BME280;5350;42.698;23.148;2023-02-11T10:28:11;95036.91;;;2.88;45.54
10606;BME280;5350;42.698;23.148;2023-02-11T10:30:42;95038.53;;;3.20;43.93
10606;BME280;5350;42.698;23.148;2023-02-11T10:33:16;95024.91;;;3.24;44.28
10606;BME280;5350;42.698;23.148;2023-02-11T10:35:45;95025.19;;;3.41;43.94
10606;BME280;5350;42.698;23.148;2023-02-11T10:38:11;95021.22;;;3.63;43.08
10606;BME280;5350;42.698;23.148;2023-02-11T10:40:38;95003.53;;;3.72;42.74
10606;BME280;5350;42.698;23.148;2023-02-11T10:43:09;94994.69;;;3.97;42.87
10606;BME280;5350;42.698;23.148;2023-02-11T10:45:39;94993.19;;;3.90;42.38
10606;BME280;5350;42.698;23.148;2023-02-11T10:48:35;95007.75;;;3.73;41.49
10606;BME280;5350;42.698;23.148;2023-02-11T10:51:07;94978.78;;;3.87;40.90
10606;BME280;5350;42.698;23.148;2023-02-11T10:53:34;94973.69;;;3.92;41.63
10606;BME280;5350;42.698;23.148;2023-02-11T10:56:01;94970.69;;;4.14;41.82
10606;BME280;5350;42.698;23.148;2023-02-11T10:58:30;94963.47;;;4.34;40.55
10606;BME280;5350;42.698;23.148;2023-02-11T11:00:58;94950.56;;;4.39;41.89
10606;BME280;5350;42.698;23.148;2023-02-11T11:03:30;94958.34;;;4.57;40.31
10606;BME280;5350;42.698;23.148;2023-02-11T11:06:01;94964.22;;;4.70;40.53
10606;BME280;5350;42.698;23.148;2023-02-11T11:08:40;94961.72;;;5.05;41.81
10606;BME280;5350;42.698;23.148;2023-02-11T11:11:09;94955.00;;;5.27;39.57
10606;BME280;5350;42.698;23.148;2023-02-11T11:13:38;94954.34;;;5.32;39.48
10606;BME280;5350;42.698;23.148;2023-02-11T11:16:08;94945.72;;;5.43;40.36
10606;BME280;5350;42.698;23.148;2023-02-11T11:18:36;94944.16;;;5.53;40.71
10606;BME280;5350;42.698;23.148;2023-02-11T11:21:05;94939.63;;;5.60;40.52
10606;BME280;5350;42.698;23.148;2023-02-11T11:23:35;94938.50;;;5.80;40.40
10606;BME280;5350;42.698;23.148;2023-02-11T11:26:05;94943.25;;;5.71;38.76
10606;BME280;5350;42.698;23.148;2023-02-11T11:28:37;94936.88;;;5.55;39.09
10606;BME280;5350;42.698;23.148;2023-02-11T11:31:11;94943.00;;;5.38;40.08
10606;BME280;5350;42.698;23.148;2023-02-11T11:33:42;94929.41;;;5.71;38.87
10606;BME280;5350;42.698;23.148;2023-02-11T11:36:11;94924.31;;;5.87;37.74
10606;BME280;5350;42.698;23.148;2023-02-11T11:38:44;94924.50;;;5.74;38.11
10606;BME280;5350;42.698;23.148;2023-02-11T11:41:14;94915.34;;;5.48;39.50
10606;BME280;5350;42.698;23.148;2023-02-11T11:43:53;94921.91;;;5.62;38.94
10606;BME280;5350;42.698;23.148;2023-02-11T11:46:22;94922.00;;;5.67;38.68
10606;BME280;5350;42.698;23.148;2023-02-11T11:48:55;94926.66;;;5.42;39.22
10606;BME280;5350;42.698;23.148;2023-02-11T11:51:25;94920.78;;;5.58;38.57
10606;BME280;5350;42.698;23.148;2023-02-11T11:53:57;94924.97;;;5.71;39.34
10606;BME280;5350;42.698;23.148;2023-02-11T11:56:27;94916.00;;;5.79;37.25
10606;BME280;5350;42.698;23.148;2023-02-11T11:58:55;94914.22;;;5.91;38.91
10606;BME280;5350;42.698;23.148;2023-02-11T12:01:33;94897.38;;;6.10;37.39
10606;BME280;5350;42.698;23.148;2023-02-11T12:04:20;94900.78;;;6.10;36.73
10606;BME280;5350;42.698;23.148;2023-02-11T12:07:01;94894.88;;;6.15;36.52
10606;BME280;5350;42.698;23.148;2023-02-11T12:09:38;94891.16;;;6.11;35.77
10606;BME280;5350;42.698;23.148;2023-02-11T12:12:20;94881.84;;;6.43;36.20
10606;BME280;5350;42.698;23.148;2023-02-11T12:14:58;94886.03;;;6.72;36.91
10606;BME280;5350;42.698;23.148;2023-02-11T12:17:45;94872.28;;;6.93;36.16
10606;BME280;5350;42.698;23.148;2023-02-11T12:20:30;94875.06;;;7.03;35.21
10606;BME280;5350;42.698;23.148;2023-02-11T12:23:13;94862.34;;;7.23;35.08
10606;BME280;5350;42.698;23.148;2023-02-11T12:25:55;94849.66;;;7.32;35.04
10606;BME280;5350;42.698;23.148;2023-02-11T12:28:33;94855.97;;;7.53;33.61
10606;BME280;5350;42.698;23.148;2023-02-11T12:31:11;94843.50;;;7.60;34.82
10606;BME280;5350;42.698;23.148;2023-02-11T12:34:03;94834.28;;;7.74;34.83
10606;BME280;5350;42.698;23.148;2023-02-11T12:36:49;94833.16;;;7.70;34.62
10606;BME280;5350;42.698;23.148;2023-02-11T12:39:29;94817.34;;;7.81;33.89
10606;BME280;5350;42.698;23.148;2023-02-11T12:42:13;94832.59;;;7.68;33.27
10606;BME280;5350;42.698;23.148;2023-02-11T12:45:11;94831.66;;;7.95;33.83
10606;BME280;5350;42.698;23.148;2023-02-11T12:47:46;94834.91;;;8.24;33.83
10606;BME280;5350;42.698;23.148;2023-02-11T12:50:20;94825.47;;;8.45;32.47
10606;BME280;5350;42.698;23.148;2023-02-11T12:53:04;94825.72;;;8.70;33.25
10606;BME280;5350;42.698;23.148;2023-02-11T12:55:37;94820.03;;;9.10;31.89
10606;BME280;5350;42.698;23.148;2023-02-11T12:58:12;94814.00;;;9.09;31.71
10606;BME280;5350;42.698;23.148;2023-02-11T13:00:45;94815.78;;;9.04;32.12
10606;BME280;5350;42.698;23.148;2023-02-11T13:03:16;94820.34;;;9.13;32.08
10606;BME280;5350;42.698;23.148;2023-02-11T13:05:48;94812.94;;;9.05;31.81
10606;BME280;5350;42.698;23.148;2023-02-11T13:08:22;94818.94;;;9.06;31.94
10606;BME280;5350;42.698;23.148;2023-02-11T13:10:53;94811.38;;;8.77;32.19
10606;BME280;5350;42.698;23.148;2023-02-11T13:13:22;94813.00;;;8.83;32.70
10606;BME280;5350;42.698;23.148;2023-02-11T13:15:54;94810.63;;;9.14;31.74
10606;BME280;5350;42.698;23.148;2023-02-11T13:18:29;94808.75;;;8.77;30.41
10606;BME280;5350;42.698;23.148;2023-02-11T13:21:09;94804.94;;;8.95;30.95
10606;BME280;5350;42.698;23.148;2023-02-11T13:23:47;94813.59;;;8.91;29.89
10606;BME280;5350;42.698;23.148;2023-02-11T13:26:20;94805.47;;;9.24;30.55
10606;BME280;5350;42.698;23.148;2023-02-11T13:28:52;94789.78;;;9.34;29.77
10606;BME280;5350;42.698;23.148;2023-02-11T13:31:22;94804.31;;;9.51;29.73